Archival Weather

Dewar Lakes

Dewar Lakes, Canada (CWUW)

Report from: Friday, May 26, 2023 2:00 PM EDT
Current time: Monday, July 22, 2024 6:48 AM EDT

Current weather – Weather history – Daily summaries
Weather forecast

Present weatherSM
Temperature-13.0°C (8.6°F)
Wind chill-26.0°C (-14.8°F)
Dew point-15.0°C (5.0°F)
Winds 28 kts (14.4 m/s, 32.2 mph) West-Northwest (290°)
Visibility0 ft. (0 m)
Altimeter29.70 in.Hg (1006 mB)
Relative humidity85 %
Density altitude-3,232 ft. (-985 m)
Remarks Fully automated report
Flight conditions Low Instrument Meteorological Conditions
Raw dataCWUW 261800Z AUTO 29028KT ////SM ////// M13/M15 A2970
An error has occurred. This application may no longer respond until reloaded. Reload 🗙